createdAt,value
2023-01-04T09:45:12.171Z,99362.94
2023-01-04T09:47:37.230Z,99354.13
2023-01-04T09:50:13.693Z,99349.66
2023-01-04T09:53:03.093Z,99341.69
2023-01-04T09:55:49.574Z,99333.03
2023-01-04T09:58:37.546Z,99333.69
2023-01-04T10:01:07.308Z,99318.72
2023-01-04T10:03:38.763Z,99315.91
2023-01-04T10:06:10.020Z,99306.25
2023-01-04T10:08:38.453Z,99298.28
2023-01-04T10:11:20.943Z,99288.50
2023-01-04T10:14:17.237Z,99302.63
2023-01-04T10:17:14.265Z,99282.16
2023-01-04T10:21:18.810Z,99282.16
2023-01-04T10:22:52.247Z,99277.66
2023-01-04T10:25:51.439Z,99270.50
2023-01-04T10:28:47.253Z,99260.88
2023-01-04T10:31:40.347Z,99263.53
2023-01-04T10:34:19.487Z,99257.22
2023-01-04T10:36:48.446Z,99254.75
2023-01-04T10:39:26.957Z,99251.91
2023-01-04T10:42:03.626Z,99241.25
2023-01-04T10:44:33.709Z,99239.63
2023-01-04T10:47:11.413Z,99222.63
2023-01-04T10:49:52.989Z,99219.97
2023-01-04T10:52:30.172Z,99209.34
2023-01-04T10:55:07.421Z,99204.69
2023-01-04T10:57:42.604Z,99209.03
2023-01-04T11:00:19.712Z,99193.72
2023-01-04T11:02:50.166Z,99190.91
2023-01-04T11:05:39.976Z,99182.56
2023-01-04T11:08:17.386Z,99185.06
2023-01-04T11:10:53.036Z,99183.03
2023-01-04T11:13:20.814Z,99178.38
2023-01-04T11:15:48.125Z,99175.34
2023-01-04T11:18:17.276Z,99167.00
2023-01-04T11:20:44.978Z,99159.69
2023-01-04T11:23:18.148Z,99168.84
2023-01-04T11:26:15.843Z,99154.53
2023-01-04T11:29:12.839Z,99138.41
2023-01-04T11:31:53.617Z,99143.34
2023-01-04T11:34:54.358Z,99129.06
2023-01-04T11:37:25.299Z,99116.41
2023-01-04T11:40:16.974Z,99105.41
2023-01-04T11:42:46.014Z,99092.75
2023-01-04T11:45:25.156Z,99091.75
2023-01-04T11:47:58.017Z,99082.75
2023-01-04T11:50:46.893Z,99067.44
2023-01-04T11:53:35.032Z,99069.09
2023-01-04T11:56:08.818Z,99061.78
2023-01-04T11:58:36.479Z,99058.09
2023-01-04T12:01:04.304Z,99056.88
2023-01-04T12:03:37.737Z,99063.03
2023-01-04T12:06:16.647Z,99055.53
2023-01-04T12:08:44.576Z,99053.69
2023-01-04T12:11:29.883Z,99042.22
2023-01-04T12:13:59.670Z,99040.38
2023-01-04T12:16:27.721Z,99024.41
2023-01-04T12:18:55.775Z,99035.91
2023-01-04T12:21:26.479Z,99020.75
2023-01-04T12:23:55.586Z,99017.06
2023-01-04T12:26:23.623Z,99017.28
2023-01-04T12:29:23.376Z,99015.22
2023-01-04T12:31:53.121Z,99003.75
2023-01-04T12:34:23.397Z,99003.75
2023-01-04T12:37:04.834Z,99001.09
2023-01-04T12:39:43.495Z,98990.66
2023-01-04T12:42:17.870Z,98981.66
2023-01-04T12:44:51.693Z,98981.28
2023-01-04T12:47:37.971Z,98976.16
2023-01-04T12:50:11.905Z,98972.66
2023-01-04T12:52:55.371Z,98955.84
2023-01-04T12:55:35.153Z,98957.53
2023-01-04T12:58:42.294Z,98941.56
2023-01-04T13:01:26.446Z,98934.56
2023-01-04T13:04:04.347Z,98939.72
2023-01-04T13:06:42.964Z,98932.53
2023-01-04T13:09:23.985Z,98926.22
2023-01-04T13:12:12.656Z,98913.91
2023-01-04T13:14:54.394Z,98909.63
2023-01-04T13:17:25.908Z,98906.75
2023-01-04T13:19:53.752Z,98899.59
2023-01-04T13:22:29.510Z,98879.31
2023-01-04T13:25:00.510Z,98885.44
2023-01-04T13:27:28.230Z,98882.63
2023-01-04T13:29:56.010Z,98878.31
2023-01-04T13:32:28.239Z,98880.97
2023-01-04T13:35:13.602Z,98870.34
2023-01-04T13:37:45.468Z,98869.31
2023-01-04T13:40:28.060Z,98868.31
2023-01-04T13:43:14.001Z,98861.31
2023-01-04T13:46:06.878Z,98858.03
2023-01-04T13:48:40.812Z,98854.38
2023-01-04T13:51:22.764Z,98847.38
2023-01-04T13:54:01.205Z,98833.06
2023-01-04T13:56:32.271Z,98826.91
2023-01-04T13:59:00.064Z,98818.09
2023-01-04T14:01:31.595Z,98811.13
2023-01-04T14:04:07.002Z,98807.84
2023-01-04T14:06:41.407Z,98796.97
2023-01-04T14:09:13.315Z,98785.50
2023-01-04T14:12:09.071Z,98780.59
2023-01-04T14:14:55.737Z,98793.06
2023-01-04T14:17:33.963Z,98815.19
2023-01-04T14:20:05.011Z,98811.69
2023-01-04T14:22:32.708Z,98802.88
2023-01-04T14:25:21.268Z,98800.22
2023-01-04T14:27:49.131Z,98788.91
2023-01-04T14:30:19.315Z,98786.25
2023-01-04T14:33:02.018Z,98785.44
2023-01-04T14:35:30.167Z,98788.09
2023-01-04T14:38:04.800Z,98787.28
2023-01-04T14:40:32.506Z,98774.16
2023-01-04T14:43:00.223Z,98781.31
2023-01-04T14:45:27.593Z,98767.00
2023-01-04T14:47:55.362Z,98749.38
2023-01-04T14:50:23.537Z,98744.06
2023-01-04T14:52:52.574Z,98737.13
2023-01-04T14:55:20.665Z,98737.94
2023-01-04T14:57:48.316Z,98736.25
2023-01-04T15:00:19.497Z,98740.59
2023-01-04T15:02:51.917Z,98747.75
2023-01-04T15:05:22.640Z,98745.91
2023-01-04T15:07:52.549Z,98730.94
2023-01-04T15:10:27.113Z,98732.97
2023-01-04T15:12:57.599Z,98718.84
2023-01-04T15:15:24.982Z,98718.03
2023-01-04T15:17:52.850Z,98709.00
2023-01-04T15:20:20.514Z,98720.69
2023-01-04T15:22:48.293Z,98717.22
2023-01-04T15:25:15.841Z,98698.59
2023-01-04T15:27:43.567Z,98696.56
2023-01-04T15:30:12.816Z,98690.59
2023-01-04T15:32:40.684Z,98683.44
2023-01-04T15:35:08.620Z,98685.91
2023-01-04T15:37:36.262Z,98671.97
2023-01-04T15:40:04.183Z,98681.59
2023-01-04T15:42:50.809Z,98672.63
2023-01-04T15:45:18.239Z,98675.28
2023-01-04T15:47:45.859Z,98670.78
2023-01-04T15:50:13.315Z,98657.66
2023-01-04T15:52:41.090Z,98655.63
2023-01-04T15:55:08.535Z,98661.75
2023-01-04T15:57:41.780Z,98644.16
2023-01-04T16:00:12.137Z,98620.03
2023-01-04T16:02:40.216Z,98611.03
2023-01-04T16:05:08.285Z,98631.28
2023-01-04T16:07:36.786Z,98629.25
2023-01-04T16:10:04.803Z,98629.88
2023-01-04T16:12:41.810Z,98619.25
2023-01-04T16:15:18.083Z,98622.16
2023-01-04T16:17:49.273Z,98623.00
2023-01-04T16:20:18.363Z,98619.13
2023-01-04T16:22:46.480Z,98625.06
2023-01-04T16:25:14.522Z,98638.63
2023-01-04T16:27:44.130Z,98624.94
2023-01-04T16:30:13.947Z,98609.97
2023-01-04T16:32:43.651Z,98611.44
2023-01-04T16:35:11.392Z,98604.28
2023-01-04T16:37:39.611Z,98597.75
2023-01-04T16:40:08.842Z,98583.41
2023-01-04T16:42:38.027Z,98575.88
2023-01-04T16:45:06.651Z,98577.53
2023-01-04T16:47:42.107Z,98558.88
2023-01-04T16:50:10.915Z,98568.09
2023-01-04T16:52:39.729Z,98554.59
2023-01-04T16:55:07.803Z,98552.75
2023-01-04T16:57:36.226Z,98546.44
2023-01-04T17:00:04.842Z,98545.41
2023-01-04T17:02:32.933Z,98547.44
2023-01-04T17:05:01.120Z,98552.38
2023-01-04T17:07:33.043Z,98548.06
2023-01-04T17:10:01.246Z,98542.56
2023-01-04T17:12:47.219Z,98539.06
2023-01-04T17:15:42.347Z,98525.13
2023-01-04T17:18:04.749Z,98522.28
2023-01-04T17:20:32.398Z,98520.44
2023-01-04T17:22:59.692Z,98497.69
2023-01-04T17:25:28.709Z,98507.94
2023-01-04T17:27:56.258Z,98494.63
2023-01-04T17:30:24.068Z,98499.13
2023-01-04T17:32:51.477Z,98486.81
2023-01-04T17:35:19.185Z,98489.47
2023-01-04T17:37:46.604Z,98504.47
2023-01-04T17:40:19.039Z,98499.94
2023-01-04T17:42:49.970Z,98492.16
2023-01-04T17:45:17.618Z,98487.66
2023-01-04T17:47:45.012Z,98479.88
2023-01-04T17:50:12.715Z,98481.50
2023-01-04T17:52:40.233Z,98477.19
2023-01-04T17:55:08.597Z,98467.56
2023-01-04T17:57:36.064Z,98466.75
2023-01-04T18:00:04.355Z,98451.59
2023-01-04T18:02:36.252Z,98442.97
2023-01-04T18:05:05.973Z,98436.00
2023-01-04T18:07:34.430Z,98445.63
2023-01-04T18:10:02.771Z,98438.69
2023-01-04T18:12:33.382Z,98437.63
2023-01-04T18:15:01.009Z,98428.22
2023-01-04T18:17:28.917Z,98425.56
2023-01-04T18:19:58.578Z,98413.69
2023-01-04T18:22:26.015Z,98404.06
2023-01-04T18:24:53.673Z,98406.09
2023-01-04T18:27:23.197Z,98402.41
2023-01-04T18:29:53.535Z,98398.75
2023-01-04T18:32:22.009Z,98388.50
2023-01-04T18:34:49.734Z,98388.50
2023-01-04T18:37:18.600Z,98389.50
2023-01-04T18:39:48.290Z,98396.50
2023-01-04T18:42:16.169Z,98393.19
2023-01-04T18:44:48.476Z,98392.16
2023-01-04T18:47:21.175Z,98397.31
2023-01-04T18:49:49.890Z,98381.72
2023-01-04T18:52:18.158Z,98375.38
2023-01-04T18:54:47.779Z,98378.22
2023-01-04T18:57:15.636Z,98380.06
2023-01-04T18:59:43.455Z,98378.22
2023-01-04T19:02:16.790Z,98374.94
2023-01-04T19:04:45.217Z,98377.59
2023-01-04T19:07:12.666Z,98379.44
2023-01-04T19:09:42.656Z,98378.63
2023-01-04T19:12:10.808Z,98374.94
2023-01-04T19:14:39.091Z,98365.09
2023-01-04T19:17:06.601Z,98368.81
2023-01-04T19:19:35.195Z,98366.97
2023-01-04T19:22:02.722Z,98357.34
2023-01-04T19:24:30.612Z,98351.81
2023-01-04T19:27:02.673Z,98341.38
2023-01-04T19:29:31.304Z,98339.72
2023-01-04T19:31:58.705Z,98345.03
2023-01-04T19:34:26.511Z,98337.06
2023-01-04T19:36:54.058Z,98329.88
2023-01-04T19:39:21.804Z,98345.03
2023-01-04T19:41:49.139Z,98332.53
2023-01-04T19:44:17.463Z,98320.47
2023-01-04T19:46:45.805Z,98315.13
2023-01-04T19:49:15.469Z,98313.50
2023-01-04T19:51:47.133Z,98316.78
2023-01-04T19:54:19.964Z,98299.16
2023-01-04T19:56:50.611Z,98294.88
2023-01-04T19:59:18.443Z,98298.34
2023-01-04T20:01:45.763Z,98282.56
2023-01-04T20:04:14.354Z,98292.22
2023-01-04T20:06:41.796Z,98293.22
2023-01-04T20:09:09.844Z,98276.44
2023-01-04T20:11:37.219Z,98276.25
2023-01-04T20:14:05.323Z,98290.19
2023-01-04T20:16:32.616Z,98291.41
2023-01-04T20:19:00.567Z,98293.84
2023-01-04T20:21:27.957Z,98306.34
2023-01-04T20:23:55.738Z,98302.88
2023-01-04T20:26:23.070Z,98288.50
2023-01-04T20:28:51.882Z,98265.19
2023-01-04T20:31:20.044Z,98279.53
2023-01-04T20:33:47.983Z,98269.88
2023-01-04T20:36:18.879Z,98277.88
2023-01-04T20:38:47.722Z,98276.25
2023-01-04T20:41:21.597Z,98270.91
2023-01-04T20:43:50.357Z,98267.22
2023-01-04T20:46:21.337Z,98266.41
2023-01-04T20:48:49.673Z,98254.94
2023-01-04T20:51:20.650Z,98245.94
2023-01-04T20:53:48.690Z,98265.59
2023-01-04T20:56:27.453Z,98242.66
2023-01-04T20:58:55.996Z,98257.59
2023-01-04T21:01:23.786Z,98247.16
2023-01-04T21:03:51.927Z,98243.69
2023-01-04T21:06:19.624Z,98235.69
2023-01-04T21:08:47.416Z,98237.75
2023-01-04T21:11:15.150Z,98227.53
2023-01-04T21:13:43.177Z,98227.72
2023-01-04T21:16:11.631Z,98218.91
2023-01-04T21:18:39.373Z,98209.09
2023-01-04T21:21:09.474Z,98203.13
2023-01-04T21:23:38.284Z,98205.00
2023-01-04T21:26:06.996Z,98202.09
2023-01-04T21:28:35.760Z,98196.16
2023-01-04T21:31:12.279Z,98202.09
2023-01-04T21:33:40.177Z,98192.50
2023-01-04T21:36:13.766Z,98204.75
2023-01-04T21:38:42.100Z,98207.84
2023-01-04T21:41:14.584Z,98198.63
2023-01-04T21:43:42.651Z,98201.47
2023-01-04T21:46:14.927Z,98200.47
2023-01-04T21:48:43.740Z,98197.19
2023-01-04T21:51:12.732Z,98186.56
2023-01-04T21:53:40.976Z,98186.56
2023-01-04T21:56:17.519Z,98171.63
2023-01-04T21:58:45.567Z,98154.00
2023-01-04T22:01:16.525Z,98142.34
2023-01-04T22:03:45.040Z,98149.50
2023-01-04T22:06:13.999Z,98159.13
2023-01-04T22:08:46.654Z,98163.63
2023-01-04T22:11:16.806Z,98150.53
2023-01-04T22:13:44.767Z,98146.00
2023-01-04T22:16:14.919Z,98134.56
2023-01-04T22:18:46.894Z,98147.66
2023-01-04T22:21:16.191Z,98149.72
2023-01-04T22:23:43.766Z,98148.66
2023-01-04T22:26:11.666Z,98154.19
2023-01-04T22:28:40.037Z,98139.06
2023-01-04T22:31:10.571Z,98142.72
2023-01-04T22:33:39.411Z,98148.66
2023-01-04T22:36:08.843Z,98140.06
2023-01-04T22:38:38.020Z,98157.06
2023-01-04T22:41:10.033Z,98150.72
2023-01-04T22:43:38.123Z,98136.41
2023-01-04T22:46:08.249Z,98127.81
2023-01-04T22:48:35.935Z,98129.63
2023-01-04T22:51:12.803Z,98115.50
2023-01-04T22:53:40.918Z,98106.72
2023-01-04T22:56:19.407Z,98105.91
2023-01-04T22:58:53.038Z,98105.91
2023-01-04T23:01:30.604Z,98100.56
2023-01-04T23:04:00.715Z,98094.22
2023-01-04T23:06:29.945Z,98094.41
2023-01-04T23:09:07.906Z,98103.44
2023-01-04T23:11:36.186Z,98111.22
2023-01-04T23:14:06.147Z,98097.28
2023-01-04T23:16:34.162Z,98087.28
2023-01-04T23:19:02.850Z,98071.50
2023-01-04T23:21:31.788Z,98071.50
2023-01-04T23:24:00.362Z,98071.50
2023-01-04T23:26:29.761Z,98065.38
2023-01-04T23:28:57.905Z,98053.06
2023-01-04T23:31:27.457Z,98059.22
2023-01-04T23:33:58.686Z,98061.06
2023-01-04T23:36:29.356Z,98061.06
2023-01-04T23:38:59.768Z,98046.13
2023-01-04T23:42:00.448Z,98044.28
2023-01-04T23:44:32.998Z,98035.47
2023-01-04T23:47:10.053Z,98030.16
2023-01-04T23:49:38.043Z,98019.50
2023-01-04T23:52:06.825Z,98001.09
2023-01-04T23:54:35.103Z,98003.56
2023-01-04T23:57:03.739Z,98009.88
2023-01-04T23:59:31.482Z,98010.72
